< < Back
Terminal Aerodrome Forecast


Current Version              Previous Versions:   1  2  3  4  5  6  7  8  9  

Terminal Aerodrome Forecast

784
FTUS44 KBMX 011100
TAFANB
TAF
KANB 011120Z 0112/0212 17004KT P6SM SCT150
     FM020300 00000KT P6SM SKC=



Latest METAR

129
SAUS70 KWBC 012000 RRL
MTRANB
METAR KANB 011953Z AUTO 00000KT 10SM CLR 30/13 A2995 RMK AO2 SLP134
T03000133


USA.gov is the U.S. government's official web portal to all federal, state and local government web resources and services.